sensor_id;sensor_type;location;lat;lon;timestamp;pressure;altitude;pressure_sealevel;temperature;humidity
25855;BME280;13680;49.936;11.344;2024-03-02T00:02:07;95656.16;;;5.35;81.24
25855;BME280;13680;49.936;11.344;2024-03-02T00:04:32;95655.59;;;5.38;81.08
25855;BME280;13680;49.936;11.344;2024-03-02T00:06:59;95649.84;;;5.31;81.04
25855;BME280;13680;49.936;11.344;2024-03-02T00:09:24;95648.53;;;5.29;81.76
25855;BME280;13680;49.936;11.344;2024-03-02T00:11:50;95644.00;;;5.29;82.04
25855;BME280;13680;49.936;11.344;2024-03-02T00:14:16;95650.81;;;5.35;81.61
25855;BME280;13680;49.936;11.344;2024-03-02T00:16:41;95650.03;;;5.35;81.94
25855;BME280;13680;49.936;11.344;2024-03-02T00:19:08;95645.50;;;5.35;81.87
25855;BME280;13680;49.936;11.344;2024-03-02T00:21:34;95640.97;;;5.36;82.13
25855;BME280;13680;49.936;11.344;2024-03-02T00:23:59;95643.81;;;5.39;81.92
25855;BME280;13680;49.936;11.344;2024-03-02T00:26:25;95640.06;;;5.40;81.28
25855;BME280;13680;49.936;11.344;2024-03-02T00:28:54;95636.84;;;5.44;81.88
25855;BME280;13680;49.936;11.344;2024-03-02T00:31:20;95643.25;;;5.43;81.67
25855;BME280;13680;49.936;11.344;2024-03-02T00:33:49;95637.63;;;5.44;81.87
25855;BME280;13680;49.936;11.344;2024-03-02T00:36:26;95630.38;;;5.45;81.66
25855;BME280;13680;49.936;11.344;2024-03-02T00:38:55;95635.25;;;5.43;81.66
25855;BME280;13680;49.936;11.344;2024-03-02T00:41:24;95629.63;;;5.44;81.46
25855;BME280;13680;49.936;11.344;2024-03-02T00:43:58;95637.81;;;5.48;81.12
25855;BME280;13680;49.936;11.344;2024-03-02T00:46:24;95632.50;;;5.48;81.68
25855;BME280;13680;49.936;11.344;2024-03-02T00:48:53;95640.19;;;5.49;81.26
25855;BME280;13680;49.936;11.344;2024-03-02T00:51:20;95638.81;;;5.52;81.63
25855;BME280;13680;49.936;11.344;2024-03-02T00:53:46;95640.78;;;5.46;81.73
25855;BME280;13680;49.936;11.344;2024-03-02T00:56:12;95642.34;;;5.47;82.20
25855;BME280;13680;49.936;11.344;2024-03-02T00:58:38;95641.88;;;5.45;82.25
25855;BME280;13680;49.936;11.344;2024-03-02T01:01:04;95639.09;;;5.50;82.19
25855;BME280;13680;49.936;11.344;2024-03-02T01:03:31;95644.66;;;5.54;82.45
25855;BME280;13680;49.936;11.344;2024-03-02T01:05:57;95643.56;;;5.55;82.48
25855;BME280;13680;49.936;11.344;2024-03-02T01:08:23;95641.88;;;5.59;82.13
25855;BME280;13680;49.936;11.344;2024-03-02T01:10:49;95648.50;;;5.62;82.27
25855;BME280;13680;49.936;11.344;2024-03-02T01:13:14;95657.78;;;5.64;82.48
25855;BME280;13680;49.936;11.344;2024-03-02T01:15:39;95650.88;;;5.63;82.63
25855;BME280;13680;49.936;11.344;2024-03-02T01:18:05;95651.47;;;5.60;82.75
25855;BME280;13680;49.936;11.344;2024-03-02T01:20:30;95652.47;;;5.64;82.70
25855;BME280;13680;49.936;11.344;2024-03-02T01:22:55;95655.34;;;5.68;82.81
25855;BME280;13680;49.936;11.344;2024-03-02T01:25:21;95663.50;;;5.71;83.05
25855;BME280;13680;49.936;11.344;2024-03-02T01:27:46;95656.63;;;5.70;82.87
25855;BME280;13680;49.936;11.344;2024-03-02T01:30:11;95654.13;;;5.74;82.70
25855;BME280;13680;49.936;11.344;2024-03-02T01:32:39;95667.69;;;5.78;82.53
25855;BME280;13680;49.936;11.344;2024-03-02T01:35:05;95662.94;;;5.74;83.01
25855;BME280;13680;49.936;11.344;2024-03-02T01:37:32;95660.28;;;5.74;83.02
25855;BME280;13680;49.936;11.344;2024-03-02T01:39:57;95663.50;;;5.71;83.47
25855;BME280;13680;49.936;11.344;2024-03-02T01:42:23;95666.13;;;5.77;83.36
25855;BME280;13680;49.936;11.344;2024-03-02T01:44:49;95662.34;;;5.78;83.50
25855;BME280;13680;49.936;11.344;2024-03-02T01:47:14;95672.44;;;5.81;83.53
25855;BME280;13680;49.936;11.344;2024-03-02T01:49:39;95663.34;;;5.82;83.65
25855;BME280;13680;49.936;11.344;2024-03-02T01:52:06;95664.81;;;5.88;83.35
25855;BME280;13680;49.936;11.344;2024-03-02T01:54:32;95662.16;;;5.88;83.51
25855;BME280;13680;49.936;11.344;2024-03-02T01:56:58;95656.81;;;5.88;83.64
25855;BME280;13680;49.936;11.344;2024-03-02T01:59:23;95659.97;;;5.90;83.39
25855;BME280;13680;49.936;11.344;2024-03-02T02:01:48;95658.91;;;5.91;84.00
25855;BME280;13680;49.936;11.344;2024-03-02T02:04:14;95655.16;;;5.92;83.51
25855;BME280;13680;49.936;11.344;2024-03-02T02:06:39;95649.72;;;5.97;83.52
25855;BME280;13680;49.936;11.344;2024-03-02T02:09:05;95657.22;;;5.95;83.80
25855;BME280;13680;49.936;11.344;2024-03-02T02:11:33;95653.69;;;6.00;83.74
25855;BME280;13680;49.936;11.344;2024-03-02T02:13:58;95657.66;;;6.02;83.93
25855;BME280;13680;49.936;11.344;2024-03-02T02:16:24;95651.50;;;6.02;84.24
25855;BME280;13680;49.936;11.344;2024-03-02T02:18:49;95659.50;;;6.02;83.99
25855;BME280;13680;49.936;11.344;2024-03-02T02:21:14;95651.13;;;6.09;83.94
25855;BME280;13680;49.936;11.344;2024-03-02T02:23:40;95655.09;;;6.11;83.92
25855;BME280;13680;49.936;11.344;2024-03-02T02:26:05;95650.53;;;6.12;84.61
25855;BME280;13680;49.936;11.344;2024-03-02T02:28:30;95656.84;;;6.16;84.12
25855;BME280;13680;49.936;11.344;2024-03-02T02:30:56;95660.00;;;6.18;84.06
25855;BME280;13680;49.936;11.344;2024-03-02T02:33:25;95655.47;;;6.18;83.90
25855;BME280;13680;49.936;11.344;2024-03-02T02:35:50;95659.72;;;6.19;83.98
25855;BME280;13680;49.936;11.344;2024-03-02T02:38:16;95654.25;;;6.25;84.24
25855;BME280;13680;49.936;11.344;2024-03-02T02:40:41;95660.00;;;6.32;84.13
25855;BME280;13680;49.936;11.344;2024-03-02T02:43:06;95656.06;;;6.29;84.20
25855;BME280;13680;49.936;11.344;2024-03-02T02:45:32;95650.91;;;6.33;84.36
25855;BME280;13680;49.936;11.344;2024-03-02T02:47:57;95656.25;;;6.33;84.47
25855;BME280;13680;49.936;11.344;2024-03-02T02:50:23;95647.44;;;6.32;84.44
25855;BME280;13680;49.936;11.344;2024-03-02T02:52:48;95643.69;;;6.33;84.34
25855;BME280;13680;49.936;11.344;2024-03-02T02:55:13;95640.41;;;6.36;84.46
25855;BME280;13680;49.936;11.344;2024-03-02T02:57:41;95646.25;;;6.38;84.29
25855;BME280;13680;49.936;11.344;2024-03-02T03:00:12;95647.72;;;6.45;84.59
25855;BME280;13680;49.936;11.344;2024-03-02T03:02:50;95646.13;;;6.44;84.47
25855;BME280;13680;49.936;11.344;2024-03-02T03:05:15;95653.06;;;6.45;84.59
25855;BME280;13680;49.936;11.344;2024-03-02T03:07:41;95650.28;;;6.50;84.56
25855;BME280;13680;49.936;11.344;2024-03-02T03:10:07;95648.19;;;6.47;84.67
25855;BME280;13680;49.936;11.344;2024-03-02T03:12:34;95647.00;;;6.53;84.60
25855;BME280;13680;49.936;11.344;2024-03-02T03:14:59;95651.25;;;6.54;84.67
25855;BME280;13680;49.936;11.344;2024-03-02T03:17:25;95652.06;;;6.54;84.93
25855;BME280;13680;49.936;11.344;2024-03-02T03:19:51;95651.44;;;6.58;84.61
25855;BME280;13680;49.936;11.344;2024-03-02T03:22:16;95653.50;;;6.61;84.72
25855;BME280;13680;49.936;11.344;2024-03-02T03:24:42;95650.56;;;6.62;84.50
25855;BME280;13680;49.936;11.344;2024-03-02T03:27:09;95652.72;;;6.60;84.76
25855;BME280;13680;49.936;11.344;2024-03-02T03:29:36;95652.53;;;6.57;85.18
25855;BME280;13680;49.936;11.344;2024-03-02T03:32:01;95654.78;;;6.63;85.18
25855;BME280;13680;49.936;11.344;2024-03-02T03:34:27;95648.84;;;6.66;85.11
25855;BME280;13680;49.936;11.344;2024-03-02T03:36:54;95649.63;;;6.67;85.18
25855;BME280;13680;49.936;11.344;2024-03-02T03:39:20;95654.38;;;6.70;85.18
25855;BME280;13680;49.936;11.344;2024-03-02T03:41:46;95650.44;;;6.67;85.13
25855;BME280;13680;49.936;11.344;2024-03-02T03:44:11;95649.06;;;6.70;85.47
25855;BME280;13680;49.936;11.344;2024-03-02T03:46:37;95653.78;;;6.73;85.48
25855;BME280;13680;49.936;11.344;2024-03-02T03:49:02;95651.91;;;6.74;85.14
25855;BME280;13680;49.936;11.344;2024-03-02T03:51:29;95658.34;;;6.72;85.20
25855;BME280;13680;49.936;11.344;2024-03-02T03:53:54;95654.59;;;6.74;85.54
25855;BME280;13680;49.936;11.344;2024-03-02T03:56:19;95660.09;;;6.77;85.24
25855;BME280;13680;49.936;11.344;2024-03-02T03:58:45;95656.75;;;6.71;85.46
25855;BME280;13680;49.936;11.344;2024-03-02T04:01:10;95656.75;;;6.71;85.66
25855;BME280;13680;49.936;11.344;2024-03-02T04:03:35;95659.13;;;6.73;85.47
25855;BME280;13680;49.936;11.344;2024-03-02T04:06:01;95654.75;;;6.77;85.79
25855;BME280;13680;49.936;11.344;2024-03-02T04:08:26;95650.22;;;6.78;85.48
25855;BME280;13680;49.936;11.344;2024-03-02T04:10:51;95656.13;;;6.75;85.85
25855;BME280;13680;49.936;11.344;2024-03-02T04:13:17;95656.63;;;6.77;85.77
25855;BME280;13680;49.936;11.344;2024-03-02T04:15:42;95651.09;;;6.73;85.67
25855;BME280;13680;49.936;11.344;2024-03-02T04:18:07;95655.94;;;6.71;85.76
25855;BME280;13680;49.936;11.344;2024-03-02T04:20:33;95658.81;;;6.75;85.51
25855;BME280;13680;49.936;11.344;2024-03-02T04:22:58;95648.13;;;6.75;85.73
25855;BME280;13680;49.936;11.344;2024-03-02T04:25:23;95654.59;;;6.74;85.56
25855;BME280;13680;49.936;11.344;2024-03-02T04:27:48;95656.94;;;6.75;85.75
25855;BME280;13680;49.936;11.344;2024-03-02T04:30:14;95662.47;;;6.79;86.06
25855;BME280;13680;49.936;11.344;2024-03-02T04:32:39;95656.22;;;6.83;85.70
25855;BME280;13680;49.936;11.344;2024-03-02T04:35:05;95658.41;;;6.81;85.51
25855;BME280;13680;49.936;11.344;2024-03-02T04:37:34;95662.53;;;6.87;85.57
25855;BME280;13680;49.936;11.344;2024-03-02T04:39:59;95664.03;;;6.80;86.02
25855;BME280;13680;49.936;11.344;2024-03-02T04:42:25;95662.38;;;6.84;85.87
25855;BME280;13680;49.936;11.344;2024-03-02T04:44:50;95654.94;;;6.81;85.81
25855;BME280;13680;49.936;11.344;2024-03-02T04:47:15;95657.13;;;6.79;86.14
25855;BME280;13680;49.936;11.344;2024-03-02T04:49:41;95665.16;;;6.79;86.20
25855;BME280;13680;49.936;11.344;2024-03-02T04:52:06;95670.53;;;6.87;86.05
25855;BME280;13680;49.936;11.344;2024-03-02T04:54:31;95666.59;;;6.85;86.46
25855;BME280;13680;49.936;11.344;2024-03-02T04:56:57;95671.94;;;6.85;86.57
25855;BME280;13680;49.936;11.344;2024-03-02T04:59:23;95666.00;;;6.88;86.68
25855;BME280;13680;49.936;11.344;2024-03-02T05:01:49;95673.22;;;6.87;86.72
25855;BME280;13680;49.936;11.344;2024-03-02T05:04:14;95667.41;;;6.85;86.46
25855;BME280;13680;49.936;11.344;2024-03-02T05:06:40;95665.81;;;6.84;86.91
25855;BME280;13680;49.936;11.344;2024-03-02T05:09:07;95665.50;;;6.86;86.79
25855;BME280;13680;49.936;11.344;2024-03-02T05:11:32;95663.66;;;6.86;87.02
25855;BME280;13680;49.936;11.344;2024-03-02T05:14:04;95668.19;;;6.86;86.88
25855;BME280;13680;49.936;11.344;2024-03-02T05:16:33;95670.97;;;6.81;86.98
25855;BME280;13680;49.936;11.344;2024-03-02T05:18:59;95669.78;;;6.87;87.35
25855;BME280;13680;49.936;11.344;2024-03-02T05:21:24;95667.72;;;6.84;86.99
25855;BME280;13680;49.936;11.344;2024-03-02T05:23:49;95661.38;;;6.80;87.20
25855;BME280;13680;49.936;11.344;2024-03-02T05:26:15;95668.09;;;6.77;87.09
25855;BME280;13680;49.936;11.344;2024-03-02T05:28:40;95669.81;;;6.73;87.38
25855;BME280;13680;49.936;11.344;2024-03-02T05:31:06;95674.94;;;6.69;87.59
25855;BME280;13680;49.936;11.344;2024-03-02T05:33:31;95668.53;;;6.70;87.25
25855;BME280;13680;49.936;11.344;2024-03-02T05:35:58;95672.69;;;6.63;87.25
25855;BME280;13680;49.936;11.344;2024-03-02T05:38:24;95673.47;;;6.63;87.08
25855;BME280;13680;49.936;11.344;2024-03-02T05:40:49;95680.53;;;6.59;87.80
25855;BME280;13680;49.936;11.344;2024-03-02T05:43:15;95671.63;;;6.64;88.00
25855;BME280;13680;49.936;11.344;2024-03-02T05:45:40;95675.38;;;6.63;87.71
25855;BME280;13680;49.936;11.344;2024-03-02T05:48:07;95682.00;;;6.65;87.63
25855;BME280;13680;49.936;11.344;2024-03-02T05:50:33;95677.06;;;6.59;87.12
25855;BME280;13680;49.936;11.344;2024-03-02T05:52:58;95678.56;;;6.51;87.34
25855;BME280;13680;49.936;11.344;2024-03-02T05:55:24;95681.72;;;6.53;86.91
25855;BME280;13680;49.936;11.344;2024-03-02T05:57:49;95692.63;;;6.43;86.98
25855;BME280;13680;49.936;11.344;2024-03-02T06:00:35;95684.13;;;6.41;87.19
25855;BME280;13680;49.936;11.344;2024-03-02T06:03:00;95688.06;;;6.43;87.02
25855;BME280;13680;49.936;11.344;2024-03-02T06:05:25;95690.03;;;6.37;86.89
25855;BME280;13680;49.936;11.344;2024-03-02T06:07:51;95690.03;;;6.37;86.92
25855;BME280;13680;49.936;11.344;2024-03-02T06:10:16;95692.72;;;6.37;86.76
25855;BME280;13680;49.936;11.344;2024-03-02T06:12:43;95691.84;;;6.42;86.71
25855;BME280;13680;49.936;11.344;2024-03-02T06:15:08;95691.63;;;6.38;86.72
25855;BME280;13680;49.936;11.344;2024-03-02T06:17:37;95696.09;;;6.29;86.61
25855;BME280;13680;49.936;11.344;2024-03-02T06:20:02;95685.91;;;6.31;86.45
25855;BME280;13680;49.936;11.344;2024-03-02T06:22:28;95694.00;;;6.26;86.35
25855;BME280;13680;49.936;11.344;2024-03-02T06:24:53;95697.28;;;6.23;86.94
25855;BME280;13680;49.936;11.344;2024-03-02T06:27:19;95689.28;;;6.23;86.59
25855;BME280;13680;49.936;11.344;2024-03-02T06:29:44;95696.00;;;6.20;86.70
25855;BME280;13680;49.936;11.344;2024-03-02T06:32:10;95694.91;;;6.21;86.71
25855;BME280;13680;49.936;11.344;2024-03-02T06:34:35;95690.97;;;6.19;86.56
25855;BME280;13680;49.936;11.344;2024-03-02T06:37:00;95702.13;;;6.21;87.10
25855;BME280;13680;49.936;11.344;2024-03-02T06:39:26;95695.38;;;6.23;86.63
25855;BME280;13680;49.936;11.344;2024-03-02T06:41:52;95696.19;;;6.24;86.83
25855;BME280;13680;49.936;11.344;2024-03-02T06:44:17;95706.47;;;6.31;86.80
25855;BME280;13680;49.936;11.344;2024-03-02T06:46:42;95701.91;;;6.31;86.67
25855;BME280;13680;49.936;11.344;2024-03-02T06:49:08;95697.69;;;6.30;86.98
25855;BME280;13680;49.936;11.344;2024-03-02T06:51:35;95702.31;;;6.38;86.80
25855;BME280;13680;49.936;11.344;2024-03-02T06:54:00;95700.72;;;6.37;86.80
25855;BME280;13680;49.936;11.344;2024-03-02T06:56:26;95703.69;;;6.36;87.31
25855;BME280;13680;49.936;11.344;2024-03-02T06:58:51;95706.69;;;6.34;87.55
25855;BME280;13680;49.936;11.344;2024-03-02T07:01:17;95700.16;;;6.41;86.97
25855;BME280;13680;49.936;11.344;2024-03-02T07:03:42;95698.44;;;6.45;87.27
25855;BME280;13680;49.936;11.344;2024-03-02T07:06:09;95704.47;;;6.50;87.30
25855;BME280;13680;49.936;11.344;2024-03-02T07:08:34;95706.44;;;6.59;86.92
25855;BME280;13680;49.936;11.344;2024-03-02T07:11:00;95697.53;;;6.63;87.18
25855;BME280;13680;49.936;11.344;2024-03-02T07:13:25;95704.84;;;6.71;87.42
25855;BME280;13680;49.936;11.344;2024-03-02T07:15:51;95703.66;;;6.78;87.32
25855;BME280;13680;49.936;11.344;2024-03-02T07:18:25;95707.19;;;6.87;87.37
25855;BME280;13680;49.936;11.344;2024-03-02T07:20:50;95703.00;;;6.95;87.63
25855;BME280;13680;49.936;11.344;2024-03-02T07:23:16;95717.22;;;7.04;87.86
25855;BME280;13680;49.936;11.344;2024-03-02T07:25:41;95714.16;;;7.11;87.56
25855;BME280;13680;49.936;11.344;2024-03-02T07:28:06;95710.63;;;7.24;87.49
25855;BME280;13680;49.936;11.344;2024-03-02T07:30:35;95711.22;;;7.21;87.56
25855;BME280;13680;49.936;11.344;2024-03-02T07:33:00;95708.56;;;7.21;88.00
25855;BME280;13680;49.936;11.344;2024-03-02T07:35:26;95715.53;;;7.31;87.76
25855;BME280;13680;49.936;11.344;2024-03-02T07:37:53;95722.16;;;7.33;87.79
25855;BME280;13680;49.936;11.344;2024-03-02T07:40:19;95728.00;;;7.35;88.52
25855;BME280;13680;49.936;11.344;2024-03-02T07:42:45;95723.94;;;7.38;88.41
25855;BME280;13680;49.936;11.344;2024-03-02T07:45:11;95734.88;;;7.50;88.11
25855;BME280;13680;49.936;11.344;2024-03-02T07:47:36;95733.66;;;7.57;87.82
25855;BME280;13680;49.936;11.344;2024-03-02T07:50:02;95735.91;;;7.63;88.06
25855;BME280;13680;49.936;11.344;2024-03-02T07:52:28;95733.09;;;7.68;88.10
25855;BME280;13680;49.936;11.344;2024-03-02T07:54:53;95731.38;;;7.73;87.92
25855;BME280;13680;49.936;11.344;2024-03-02T07:57:19;95731.75;;;7.80;88.33
25855;BME280;13680;49.936;11.344;2024-03-02T07:59:45;95736.41;;;7.97;87.84
25855;BME280;13680;49.936;11.344;2024-03-02T08:02:10;95734.41;;;8.02;87.90
25855;BME280;13680;49.936;11.344;2024-03-02T08:04:36;95732.50;;;8.03;87.45
25855;BME280;13680;49.936;11.344;2024-03-02T08:07:02;95734.59;;;8.15;87.46
25855;BME280;13680;49.936;11.344;2024-03-02T08:09:28;95735.34;;;8.07;87.54
25855;BME280;13680;49.936;11.344;2024-03-02T08:11:53;95738.03;;;8.07;87.52
25855;BME280;13680;49.936;11.344;2024-03-02T08:14:18;95734.91;;;8.13;87.96
25855;BME280;13680;49.936;11.344;2024-03-02T08:16:44;95733.50;;;8.16;87.76
25855;BME280;13680;49.936;11.344;2024-03-02T08:19:10;95730.38;;;8.23;87.33
25855;BME280;13680;49.936;11.344;2024-03-02T08:21:35;95735.91;;;8.26;87.25
25855;BME280;13680;49.936;11.344;2024-03-02T08:24:02;95733.09;;;8.31;87.07
25855;BME280;13680;49.936;11.344;2024-03-02T08:26:27;95730.28;;;8.45;87.33
25855;BME280;13680;49.936;11.344;2024-03-02T08:28:55;95732.41;;;8.48;87.48
25855;BME280;13680;49.936;11.344;2024-03-02T08:31:20;95729.84;;;8.43;87.68
25855;BME280;13680;49.936;11.344;2024-03-02T08:33:45;95730.97;;;8.51;88.05
25855;BME280;13680;49.936;11.344;2024-03-02T08:36:11;95734.31;;;8.65;87.42
25855;BME280;13680;49.936;11.344;2024-03-02T08:38:37;95730.72;;;8.79;87.27
25855;BME280;13680;49.936;11.344;2024-03-02T08:41:02;95740.03;;;8.99;87.43
25855;BME280;13680;49.936;11.344;2024-03-02T08:43:28;95735.97;;;9.10;88.38
25855;BME280;13680;49.936;11.344;2024-03-02T08:45:54;95736.28;;;9.26;87.83
25855;BME280;13680;49.936;11.344;2024-03-02T08:48:19;95737.22;;;9.39;86.49
25855;BME280;13680;49.936;11.344;2024-03-02T08:50:46;95741.63;;;9.44;85.79
25855;BME280;13680;49.936;11.344;2024-03-02T08:53:11;95738.78;;;9.49;84.72
25855;BME280;13680;49.936;11.344;2024-03-02T08:55:36;95742.28;;;9.58;85.45
25855;BME280;13680;49.936;11.344;2024-03-02T08:58:02;95744.91;;;9.76;83.73
25855;BME280;13680;49.936;11.344;2024-03-02T09:00:28;95739.22;;;9.86;83.65
25855;BME280;13680;49.936;11.344;2024-03-02T09:02:53;95744.53;;;10.04;82.58
25855;BME280;13680;49.936;11.344;2024-03-02T09:05:19;95744.84;;;10.11;81.25
25855;BME280;13680;49.936;11.344;2024-03-02T09:07:44;95747.03;;;10.18;80.79
25855;BME280;13680;49.936;11.344;2024-03-02T09:10:10;95740.84;;;10.26;80.57
25855;BME280;13680;49.936;11.344;2024-03-02T09:12:35;95748.72;;;10.40;79.55
25855;BME280;13680;49.936;11.344;2024-03-02T09:15:02;95747.13;;;10.39;77.69
25855;BME280;13680;49.936;11.344;2024-03-02T09:17:28;95745.06;;;10.36;78.25
25855;BME280;13680;49.936;11.344;2024-03-02T09:19:54;95750.16;;;10.37;79.15
25855;BME280;13680;49.936;11.344;2024-03-02T09:22:19;95743.19;;;10.66;79.21
25855;BME280;13680;49.936;11.344;2024-03-02T09:24:45;95747.13;;;10.99;79.20
25855;BME280;13680;49.936;11.344;2024-03-02T09:27:10;95740.38;;;11.13;77.18
25855;BME280;13680;49.936;11.344;2024-03-02T09:29:36;95743.75;;;11.32;75.10
25855;BME280;13680;49.936;11.344;2024-03-02T09:32:01;95742.94;;;11.31;74.52
25855;BME280;13680;49.936;11.344;2024-03-02T09:34:26;95741.88;;;11.23;73.57
25855;BME280;13680;49.936;11.344;2024-03-02T09:36:52;95739.34;;;11.27;75.06
25855;BME280;13680;49.936;11.344;2024-03-02T09:39:17;95734.69;;;11.15;76.40
25855;BME280;13680;49.936;11.344;2024-03-02T09:41:43;95747.97;;;11.54;74.58
25855;BME280;13680;49.936;11.344;2024-03-02T09:44:09;95741.75;;;11.41;72.72
25855;BME280;13680;49.936;11.344;2024-03-02T09:46:35;95741.97;;;11.36;72.97
25855;BME280;13680;49.936;11.344;2024-03-02T09:49:02;95743.13;;;11.47;73.47
25855;BME280;13680;49.936;11.344;2024-03-02T09:51:27;95737.88;;;11.84;73.53
25855;BME280;13680;49.936;11.344;2024-03-02T09:53:54;95747.75;;;11.80;72.25
25855;BME280;13680;49.936;11.344;2024-03-02T09:56:21;95742.69;;;11.78;73.63
25855;BME280;13680;49.936;11.344;2024-03-02T09:58:47;95738.75;;;11.76;73.00
25855;BME280;13680;49.936;11.344;2024-03-02T10:01:12;95731.78;;;11.75;72.97
25855;BME280;13680;49.936;11.344;2024-03-02T10:03:38;95737.28;;;11.78;72.60
25855;BME280;13680;49.936;11.344;2024-03-02T10:06:20;95736.25;;;11.71;72.02
25855;BME280;13680;49.936;11.344;2024-03-02T10:08:45;95738.25;;;11.95;71.03
25855;BME280;13680;49.936;11.344;2024-03-02T10:11:25;95729.69;;;12.26;69.41
25855;BME280;13680;49.936;11.344;2024-03-02T10:14:04;95737.91;;;12.30;69.97
25855;BME280;13680;49.936;11.344;2024-03-02T10:16:29;95723.38;;;12.10;69.94
25855;BME280;13680;49.936;11.344;2024-03-02T10:18:54;95733.03;;;12.11;68.67
25855;BME280;13680;49.936;11.344;2024-03-02T10:21:20;95728.03;;;12.47;67.48
25855;BME280;13680;49.936;11.344;2024-03-02T10:23:46;95728.91;;;12.63;68.31
25855;BME280;13680;49.936;11.344;2024-03-02T10:26:18;95725.09;;;12.52;68.70
25855;BME280;13680;49.936;11.344;2024-03-02T10:28:47;95713.91;;;13.03;68.17
25855;BME280;13680;49.936;11.344;2024-03-02T10:31:17;95715.06;;;12.89;66.57
25855;BME280;13680;49.936;11.344;2024-03-02T10:33:43;95717.09;;;12.80;66.65
25855;BME280;13680;49.936;11.344;2024-03-02T10:36:09;95718.16;;;13.16;66.49
25855;BME280;13680;49.936;11.344;2024-03-02T10:38:34;95713.84;;;13.27;65.21
25855;BME280;13680;49.936;11.344;2024-03-02T10:41:00;95711.34;;;13.47;65.10
25855;BME280;13680;49.936;11.344;2024-03-02T10:43:26;95708.50;;;14.16;64.15
25855;BME280;13680;49.936;11.344;2024-03-02T10:45:54;95705.09;;;14.67;60.41
25855;BME280;13680;49.936;11.344;2024-03-02T10:48:21;95705.91;;;14.20;62.13
25855;BME280;13680;49.936;11.344;2024-03-02T10:50:47;95707.44;;;14.69;61.95
25855;BME280;13680;49.936;11.344;2024-03-02T10:53:13;95707.38;;;15.01;60.09
25855;BME280;13680;49.936;11.344;2024-03-02T10:55:38;95703.72;;;14.93;58.91
25855;BME280;13680;49.936;11.344;2024-03-02T10:58:04;95705.44;;;15.01;58.33
25855;BME280;13680;49.936;11.344;2024-03-02T11:00:33;95698.72;;;14.60;58.56
25855;BME280;13680;49.936;11.344;2024-03-02T11:03:06;95698.97;;;14.38;59.12
25855;BME280;13680;49.936;11.344;2024-03-02T11:05:38;95705.69;;;14.29;60.14
25855;BME280;13680;49.936;11.344;2024-03-02T11:08:08;95703.69;;;14.57;60.04
25855;BME280;13680;49.936;11.344;2024-03-02T11:10:45;95695.84;;;14.36;60.09
25855;BME280;13680;49.936;11.344;2024-03-02T11:13:13;95686.00;;;15.15;58.44
25855;BME280;13680;49.936;11.344;2024-03-02T11:15:40;95694.13;;;15.74;55.87
25855;BME280;13680;49.936;11.344;2024-03-02T11:18:07;95677.13;;;16.70;54.21
25855;BME280;13680;49.936;11.344;2024-03-02T11:20:37;95690.06;;;16.80;53.51
25855;BME280;13680;49.936;11.344;2024-03-02T11:23:09;95682.19;;;16.72;52.38
25855;BME280;13680;49.936;11.344;2024-03-02T11:25:36;95681.78;;;17.27;51.99
25855;BME280;13680;49.936;11.344;2024-03-02T11:28:06;95682.78;;;17.45;51.99
25855;BME280;13680;49.936;11.344;2024-03-02T11:33:05;95684.25;;;17.73;50.04
25855;BME280;13680;49.936;11.344;2024-03-02T11:35:44;95673.84;;;17.11;50.64
25855;BME280;13680;49.936;11.344;2024-03-02T11:38:14;95682.97;;;16.72;52.02
25855;BME280;13680;49.936;11.344;2024-03-02T11:40:40;95681.81;;;16.73;51.99
25855;BME280;13680;49.936;11.344;2024-03-02T11:43:06;95673.16;;;16.64;51.94
25855;BME280;13680;49.936;11.344;2024-03-02T11:45:36;95676.59;;;16.11;51.83
25855;BME280;13680;49.936;11.344;2024-03-02T11:48:06;95667.59;;;16.30;52.43
25855;BME280;13680;49.936;11.344;2024-03-02T11:50:35;95678.41;;;16.80;49.93
25855;BME280;13680;49.936;11.344;2024-03-02T11:53:05;95671.47;;;16.82;50.81
25855;BME280;13680;49.936;11.344;2024-03-02T11:55:37;95673.53;;;16.62;50.04
25855;BME280;13680;49.936;11.344;2024-03-02T11:58:03;95673.72;;;16.00;51.08
25855;BME280;13680;49.936;11.344;2024-03-02T12:00:29;95661.34;;;16.02;52.60
25855;BME280;13680;49.936;11.344;2024-03-02T12:03:05;95669.31;;;16.65;51.15
25855;BME280;13680;49.936;11.344;2024-03-02T12:05:31;95650.50;;;16.79;49.43
25855;BME280;13680;49.936;11.344;2024-03-02T12:07:58;95651.97;;;16.73;50.07
25855;BME280;13680;49.936;11.344;2024-03-02T12:10:25;95647.69;;;16.72;49.27
25855;BME280;13680;49.936;11.344;2024-03-02T12:13:00;95634.75;;;16.35;50.72
25855;BME280;13680;49.936;11.344;2024-03-02T12:15:26;95639.63;;;16.26;50.44
25855;BME280;13680;49.936;11.344;2024-03-02T12:17:56;95628.63;;;16.68;50.84
25855;BME280;13680;49.936;11.344;2024-03-02T12:20:23;95629.72;;;16.91;49.75
25855;BME280;13680;49.936;11.344;2024-03-02T12:22:50;95648.31;;;16.62;51.14
25855;BME280;13680;49.936;11.344;2024-03-02T12:25:19;95626.72;;;17.30;49.09
25855;BME280;13680;49.936;11.344;2024-03-02T12:27:46;95626.66;;;18.02;46.38
25855;BME280;13680;49.936;11.344;2024-03-02T12:30:12;95628.44;;;18.31;45.78
25855;BME280;13680;49.936;11.344;2024-03-02T12:32:40;95623.19;;;18.57;46.34
25855;BME280;13680;49.936;11.344;2024-03-02T12:35:06;95621.50;;;17.93;46.08
25855;BME280;13680;49.936;11.344;2024-03-02T12:37:32;95622.88;;;18.13;47.13
25855;BME280;13680;49.936;11.344;2024-03-02T12:39:58;95613.47;;;18.59;45.59
25855;BME280;13680;49.936;11.344;2024-03-02T12:42:24;95608.38;;;19.28;44.82
25855;BME280;13680;49.936;11.344;2024-03-02T12:44:52;95609.41;;;18.91;45.47
25855;BME280;13680;49.936;11.344;2024-03-02T12:47:20;95611.09;;;19.35;44.72
25855;BME280;13680;49.936;11.344;2024-03-02T12:49:46;95604.22;;;19.88;43.22
25855;BME280;13680;49.936;11.344;2024-03-02T12:52:15;95605.28;;;19.40;44.13
25855;BME280;13680;49.936;11.344;2024-03-02T12:54:41;95599.34;;;19.02;43.96
25855;BME280;13680;49.936;11.344;2024-03-02T12:57:06;95611.78;;;18.40;45.90